Time;durP1;ratioP1;P1;durP2;ratioP2;P2;SDS_P1;SDS_P2;PMS_P1;PMS_P2;Temp;Humidity;BMP_temperature;BMP_pressure;BME280_temperature;BME280_humidity;BME280_pressure;Samples;Min_cycle;Max_cycle;Signal;HPM_P1;HPM_P2
2021/08/23 00:00:15;;;;;;;14.07;7.28;;;15.10;99.90;;;;;;5089556;28;20088;-67
2021/08/23 00:02:43;;;;;;;14.88;6.90;;;15.10;99.90;;;;;;5089673;28;20465;-67
2021/08/23 00:05:12;;;;;;;13.05;7.65;;;15.20;99.90;;;;;;5089543;28;20044;-67
2021/08/23 00:07:39;;;;;;;14.13;8.18;;;15.20;99.90;;;;;;5089023;28;20058;-68
2021/08/23 00:10:07;;;;;;;15.77;6.95;;;15.10;99.90;;;;;;5089451;28;20060;-67
2021/08/23 00:12:34;;;;;;;15.02;7.30;;;15.10;99.90;;;;;;5089596;28;20051;-67
2021/08/23 00:15:01;;;;;;;11.55;6.88;;;15.10;99.90;;;;;;5089727;28;20101;-66
2021/08/23 00:17:28;;;;;;;12.18;7.45;;;15.10;99.90;;;;;;5089307;28;20454;-67
2021/08/23 00:19:56;;;;;;;13.05;7.43;;;15.00;99.90;;;;;;5089036;28;20048;-66
2021/08/23 00:22:30;;;;;;;13.05;8.23;;;15.00;99.90;;;;;;5089861;28;20187;-67
2021/08/23 00:24:59;;;;;;;12.75;7.30;;;14.90;99.90;;;;;;5093787;28;20047;-67
2021/08/23 00:27:26;;;;;;;13.25;7.93;;;14.80;99.90;;;;;;5093392;28;20100;-66
2021/08/23 00:29:53;;;;;;;13.07;8.18;;;14.80;99.90;;;;;;5093733;28;20079;-67
2021/08/23 00:32:21;;;;;;;16.42;8.43;;;15.00;99.90;;;;;;5093558;28;20105;-67
2021/08/23 00:34:48;;;;;;;12.77;8.00;;;14.90;99.90;;;;;;5093113;28;20051;-66
2021/08/23 00:37:17;;;;;;;12.35;7.55;;;14.80;99.90;;;;;;5093261;28;20048;-67
2021/08/23 00:39:44;;;;;;;16.42;8.25;;;14.80;99.90;;;;;;5092783;28;20056;-67
2021/08/23 00:42:14;;;;;;;17.13;8.93;;;14.80;99.90;;;;;;5093384;28;20044;-67
2021/08/23 00:44:43;;;;;;;14.45;8.85;;;14.80;99.90;;;;;;5093240;28;20093;-66
2021/08/23 00:47:10;;;;;;;15.80;9.40;;;14.70;99.90;;;;;;5093160;28;20106;-67
2021/08/23 00:49:37;;;;;;;13.68;8.35;;;14.80;99.90;;;;;;5092071;28;20047;-66
2021/08/23 00:52:05;;;;;;;19.88;9.00;;;14.80;99.90;;;;;;5093097;28;20047;-67
2021/08/23 00:54:34;;;;;;;17.58;8.93;;;14.90;99.90;;;;;;5093097;28;20101;-67
2021/08/23 00:57:02;;;;;;;14.68;8.32;;;14.70;99.90;;;;;;5092882;28;20060;-67
2021/08/23 00:59:32;;;;;;;14.88;8.05;;;14.80;99.90;;;;;;5092418;28;20056;-67
2021/08/23 01:02:08;;;;;;;15.05;8.60;;;14.70;99.90;;;;;;5092695;28;20086;-67
2021/08/23 01:04:41;;;;;;;13.75;8.43;;;14.70;99.90;;;;;;5092791;28;20048;-66
2021/08/23 01:07:13;;;;;;;15.45;9.65;;;14.60;99.90;;;;;;5092603;28;20077;-67
2021/08/23 01:09:45;;;;;;;16.35;9.45;;;14.60;99.90;;;;;;5092275;28;20048;-67
2021/08/23 01:12:13;;;;;;;16.17;8.23;;;14.60;99.90;;;;;;5092910;28;20052;-67
2021/08/23 01:14:39;;;;;;;16.05;8.40;;;14.60;99.90;;;;;;5092503;28;20503;-67
2021/08/23 01:17:07;;;;;;;13.70;8.35;;;14.60;99.90;;;;;;5092515;28;20089;-67
2021/08/23 01:19:36;;;;;;;13.23;7.85;;;14.60;99.90;;;;;;5092274;28;20055;-66
2021/08/23 01:22:05;;;;;;;13.35;7.95;;;14.70;99.90;;;;;;5093067;28;20052;-67
2021/08/23 01:24:36;;;;;;;14.07;7.68;;;14.80;99.90;;;;;;5092510;28;20064;-66
2021/08/23 01:27:09;;;;;;;15.07;7.95;;;14.80;99.90;;;;;;5092148;28;20101;-67
2021/08/23 01:29:44;;;;;;;13.90;8.48;;;14.80;99.90;;;;;;5091776;28;20185;-67
2021/08/23 01:32:19;;;;;;;12.80;7.93;;;14.70;99.90;;;;;;5092501;28;20492;-67
2021/08/23 01:34:49;;;;;;;12.68;8.38;;;14.70;99.90;;;;;;5091629;28;20110;-66
2021/08/23 01:37:17;;;;;;;16.33;9.10;;;14.60;99.90;;;;;;5091610;28;20114;-67
2021/08/23 01:39:45;;;;;;;13.15;8.15;;;14.80;99.90;;;;;;5091939;28;20489;-67
2021/08/23 01:42:12;;;;;;;13.32;7.80;;;14.80;99.90;;;;;;5092185;28;20052;-67
2021/08/23 01:44:40;;;;;;;13.23;8.75;;;14.80;99.90;;;;;;5092211;28;20052;-67
2021/08/23 01:47:07;;;;;;;15.07;9.10;;;14.70;99.90;;;;;;5092484;28;20048;-66
2021/08/23 01:49:36;;;;;;;15.02;9.27;;;14.80;99.90;;;;;;5091070;28;20549;-67
2021/08/23 01:52:04;;;;;;;11.70;7.80;;;14.90;99.90;;;;;;5092140;28;20814;-67
2021/08/23 01:54:31;;;;;;;19.13;7.82;;;14.90;99.90;;;;;;5092027;28;20500;-67
2021/08/23 01:56:58;;;;;;;15.23;8.85;;;14.90;99.90;;;;;;5091617;28;20048;-67
2021/08/23 01:59:25;;;;;;;14.43;8.95;;;14.90;99.90;;;;;;5091460;28;20044;-67
2021/08/23 02:01:52;;;;;;;13.60;8.63;;;14.90;99.90;;;;;;5091823;28;20056;-67
2021/08/23 02:04:19;;;;;;;19.00;9.45;;;14.90;99.90;;;;;;5091615;28;20048;-67
2021/08/23 02:06:47;;;;;;;15.13;9.05;;;14.90;99.90;;;;;;5091736;28;20055;-67
2021/08/23 02:09:15;;;;;;;15.88;9.10;;;15.00;99.90;;;;;;5091146;28;20044;-67
2021/08/23 02:11:42;;;;;;;15.00;8.68;;;15.00;99.90;;;;;;5091857;28;20048;-67
2021/08/23 02:14:09;;;;;;;14.88;9.63;;;15.00;99.90;;;;;;5091613;28;20097;-67
2021/08/23 02:16:39;;;;;;;19.88;9.45;;;15.10;99.90;;;;;;5091656;28;20457;-67
2021/08/23 02:19:07;;;;;;;16.83;9.80;;;15.10;99.90;;;;;;5091149;28;20062;-67
2021/08/23 02:21:45;;;;;;;15.20;9.93;;;15.00;99.90;;;;;;5091389;28;20458;-66
2021/08/23 02:24:13;;;;;;;15.00;9.20;;;15.00;99.90;;;;;;5091345;28;20059;-67
2021/08/23 02:26:40;;;;;;;14.70;9.73;;;15.00;99.90;;;;;;5091413;28;20044;-67
2021/08/23 02:29:07;;;;;;;14.68;9.13;;;15.00;99.90;;;;;;5090892;28;20101;-67
2021/08/23 02:31:34;;;;;;;18.10;10.15;;;15.00;99.90;;;;;;5091477;28;20468;-67
2021/08/23 02:34:02;;;;;;;18.38;10.63;;;15.00;99.90;;;;;;5091652;28;20044;-67
2021/08/23 02:36:29;;;;;;;16.35;9.85;;;15.00;99.90;;;;;;5090931;28;20052;-68
2021/08/23 02:38:56;;;;;;;14.20;9.07;;;15.00;99.90;;;;;;5090493;28;20071;-67
2021/08/23 02:41:25;;;;;;;17.02;9.80;;;15.00;99.90;;;;;;5091181;28;20056;-67
2021/08/23 02:43:52;;;;;;;15.82;9.77;;;15.00;99.90;;;;;;5090857;28;20101;-67
2021/08/23 02:46:19;;;;;;;15.02;9.77;;;15.00;99.90;;;;;;5090750;28;20125;-67
2021/08/23 02:48:46;;;;;;;13.85;9.10;;;15.00;99.90;;;;;;5090218;28;20492;-67
2021/08/23 02:51:13;;;;;;;15.43;10.05;;;15.00;99.90;;;;;;5090543;28;20044;-67
2021/08/23 02:53:40;;;;;;;14.48;9.77;;;15.00;99.90;;;;;;5091217;28;20105;-67
2021/08/23 02:56:07;;;;;;;17.02;10.00;;;15.00;99.90;;;;;;5091010;28;20052;-67
2021/08/23 02:58:35;;;;;;;14.25;9.25;;;15.00;99.90;;;;;;5090104;28;20089;-67
2021/08/23 03:01:02;;;;;;;17.45;10.40;;;15.00;99.90;;;;;;5091122;28;20503;-67
2021/08/23 03:03:29;;;;;;;14.02;9.70;;;15.00;99.90;;;;;;5090324;28;20083;-67
2021/08/23 03:05:56;;;;;;;17.02;10.18;;;15.00;99.90;;;;;;5090449;28;20160;-67
2021/08/23 03:08:23;;;;;;;16.60;9.15;;;15.10;99.90;;;;;;5089833;28;20052;-67
2021/08/23 03:10:54;;;;;;;14.63;10.20;;;15.20;99.90;;;;;;5090649;28;20048;-67
2021/08/23 03:13:21;;;;;;;17.30;9.38;;;15.20;99.90;;;;;;5091112;28;20070;-67
2021/08/23 03:15:50;;;;;;;14.18;9.48;;;15.10;99.90;;;;;;5090429;28;20048;-66
2021/08/23 03:18:17;;;;;;;16.67;10.05;;;15.20;99.90;;;;;;5089418;28;20098;-67
2021/08/23 03:20:44;;;;;;;16.55;9.98;;;15.10;99.90;;;;;;5090369;28;20074;-67
2021/08/23 03:23:11;;;;;;;16.17;10.00;;;15.10;99.90;;;;;;5090377;28;20070;-67
2021/08/23 03:25:38;;;;;;;16.30;10.80;;;15.10;99.90;;;;;;5090201;28;20052;-67
2021/08/23 03:28:05;;;;;;;18.10;11.50;;;15.20;99.90;;;;;;5089376;28;20105;-66
2021/08/23 03:30:32;;;;;;;14.93;9.93;;;15.20;99.90;;;;;;5089990;28;20051;-68
2021/08/23 03:33:00;;;;;;;19.23;11.45;;;15.20;99.90;;;;;;5089893;28;20517;-66
2021/08/23 03:35:27;;;;;;;23.77;10.95;;;15.10;99.90;;;;;;5089866;28;20052;-67
2021/08/23 03:37:55;;;;;;;19.58;11.15;;;15.10;99.90;;;;;;5089622;28;20071;-67
2021/08/23 03:40:22;;;;;;;22.00;11.38;;;15.10;99.90;;;;;;5091228;28;20114;-67
2021/08/23 03:42:49;;;;;;;17.20;11.07;;;15.10;99.90;;;;;;5090755;28;20165;-68
2021/08/23 03:45:16;;;;;;;17.50;11.00;;;15.20;99.90;;;;;;5090582;28;20112;-67
2021/08/23 03:47:43;;;;;;;22.90;12.02;;;15.20;99.90;;;;;;5089775;28;20055;-67
2021/08/23 03:50:12;;;;;;;19.83;12.00;;;15.20;99.90;;;;;;5090467;28;20485;-67
2021/08/23 03:52:39;;;;;;;16.23;10.68;;;15.30;99.90;;;;;;5091015;28;20488;-66
2021/08/23 03:55:07;;;;;;;20.90;11.88;;;15.30;99.90;;;;;;5090866;28;20056;-67
2021/08/23 03:57:35;;;;;;;17.95;11.55;;;15.30;99.90;;;;;;5089012;28;20094;-67
2021/08/23 04:00:04;;;;;;;16.92;11.25;;;15.20;99.90;;;;;;5089506;28;20142;-67
2021/08/23 04:02:31;;;;;;;18.23;11.05;;;15.20;99.90;;;;;;5089775;28;20093;-67
2021/08/23 04:04:58;;;;;;;18.90;11.80;;;15.30;99.90;;;;;;5089611;28;20059;-67
2021/08/23 04:07:27;;;;;;;18.42;11.82;;;15.30;99.90;;;;;;5089629;28;20116;-67
2021/08/23 04:09:54;;;;;;;20.55;12.32;;;15.30;99.90;;;;;;5089170;28;20052;-66
2021/08/23 04:12:21;;;;;;;17.20;11.60;;;15.20;99.90;;;;;;5089392;28;20044;-67
2021/08/23 04:14:48;;;;;;;20.45;11.85;;;15.20;99.90;;;;;;5089569;28;20420;-66
2021/08/23 04:17:15;;;;;;;21.55;12.02;;;15.20;99.90;;;;;;5089451;28;20097;-67
2021/08/23 04:19:42;;;;;;;18.40;11.38;;;15.20;99.90;;;;;;5088972;28;20112;-67
2021/08/23 04:22:11;;;;;;;18.00;12.23;;;15.20;99.90;;;;;;5089468;28;20052;-67
2021/08/23 04:24:39;;;;;;;15.77;10.48;;;15.20;99.90;;;;;;5089427;28;20093;-67
2021/08/23 04:27:06;;;;;;;19.58;11.65;;;15.30;99.90;;;;;;5089183;28;20056;-67
2021/08/23 04:29:33;;;;;;;18.05;11.52;;;15.30;99.90;;;;;;5088672;28;20103;-67
2021/08/23 04:32:00;;;;;;;20.55;12.02;;;15.30;99.90;;;;;;5089364;28;20044;-67
2021/08/23 04:34:27;;;;;;;18.95;11.48;;;15.20;99.90;;;;;;5089650;28;20048;-66
2021/08/23 04:36:54;;;;;;;20.88;13.05;;;15.20;99.90;;;;;;5089288;28;20079;-67
2021/08/23 04:39:21;;;;;;;21.35;12.90;;;15.20;99.90;;;;;;5088677;28;20083;-67
2021/08/23 04:41:50;;;;;;;19.58;12.35;;;15.20;99.90;;;;;;5089401;28;20109;-67
2021/08/23 04:44:17;;;;;;;21.38;13.32;;;15.20;99.90;;;;;;5089411;28;20063;-67
2021/08/23 04:46:44;;;;;;;18.80;11.88;;;15.30;99.90;;;;;;5089370;28;20070;-67
2021/08/23 04:49:11;;;;;;;22.77;12.70;;;15.30;99.90;;;;;;5088539;28;20097;-67
2021/08/23 04:51:38;;;;;;;19.52;11.70;;;15.30;99.90;;;;;;5089144;28;20097;-67
2021/08/23 04:54:05;;;;;;;17.77;11.65;;;15.30;99.90;;;;;;5088990;28;20133;-67
2021/08/23 04:56:32;;;;;;;20.75;13.88;;;15.30;99.90;;;;;;5089411;28;20048;-67
2021/08/23 04:59:00;;;;;;;21.63;13.05;;;15.30;99.90;;;;;;5088372;28;20400;-67
2021/08/23 05:01:27;;;;;;;17.88;12.55;;;15.20;99.90;;;;;;5089401;28;20043;-67
2021/08/23 05:03:54;;;;;;;21.20;12.90;;;15.30;99.90;;;;;;5089070;28;20056;-67
2021/08/23 05:06:21;;;;;;;19.45;13.45;;;15.20;99.90;;;;;;5089174;28;20052;-67
2021/08/23 05:08:48;;;;;;;21.33;13.77;;;15.30;99.90;;;;;;5089412;28;20106;-66
2021/08/23 05:11:15;;;;;;;21.60;13.82;;;15.30;99.90;;;;;;5093027;28;20490;-67
2021/08/23 05:13:42;;;;;;;21.95;14.52;;;15.20;99.90;;;;;;5092793;28;20474;-67
2021/08/23 05:16:10;;;;;;;20.38;13.65;;;15.30;99.90;;;;;;5092659;28;20048;-67
2021/08/23 05:18:37;;;;;;;23.42;13.98;;;15.30;99.90;;;;;;5092324;28;20084;-67
2021/08/23 05:21:04;;;;;;;21.20;14.00;;;15.40;99.90;;;;;;5092446;28;20507;-67
2021/08/23 05:23:32;;;;;;;18.27;12.88;;;15.40;99.90;;;;;;5092580;28;20056;-67
2021/08/23 05:25:59;;;;;;;24.52;13.48;;;15.40;99.90;;;;;;5092780;28;20044;-67
2021/08/23 05:28:26;;;;;;;26.13;14.77;;;15.40;99.90;;;;;;5092022;28;20176;-66
2021/08/23 05:30:53;;;;;;;22.95;14.38;;;15.40;99.90;;;;;;5092587;28;20051;-67
2021/08/23 05:33:21;;;;;;;24.33;14.05;;;15.40;99.90;;;;;;5092394;28;20052;-66
2021/08/23 05:35:48;;;;;;;21.38;14.77;;;15.40;99.90;;;;;;5092192;28;20097;-67
2021/08/23 05:38:15;;;;;;;22.75;13.73;;;15.40;99.90;;;;;;5091594;28;20094;-67
2021/08/23 05:40:42;;;;;;;19.65;13.15;;;15.50;99.90;;;;;;5092232;28;20114;-66
2021/08/23 05:43:09;;;;;;;20.70;12.77;;;15.40;99.90;;;;;;5092203;28;20048;-67
2021/08/23 05:45:36;;;;;;;19.13;12.23;;;15.50;99.90;;;;;;5091979;28;20484;-67
2021/08/23 05:48:04;;;;;;;22.10;12.75;;;15.40;99.90;;;;;;5091190;28;20052;-67
2021/08/23 05:50:32;;;;;;;17.30;12.68;;;15.40;99.90;;;;;;5091955;28;20376;-67
2021/08/23 05:52:59;;;;;;;18.15;12.75;;;15.40;99.90;;;;;;5091890;28;20097;-67
2021/08/23 05:55:26;;;;;;;18.17;12.90;;;15.40;99.90;;;;;;5091795;28;20052;-67
2021/08/23 05:57:53;;;;;;;20.42;13.07;;;15.40;99.90;;;;;;5091153;28;20127;-67
2021/08/23 06:00:20;;;;;;;20.92;13.35;;;15.40;99.90;;;;;;5092338;28;20044;-66
2021/08/23 06:02:47;;;;;;;21.50;13.10;;;15.50;99.90;;;;;;5091831;28;20233;-67
2021/08/23 06:05:15;;;;;;;18.58;13.07;;;15.50;99.90;;;;;;5091785;28;20101;-67
2021/08/23 06:07:43;;;;;;;21.45;12.98;;;15.50;99.90;;;;;;5091352;28;20109;-67
2021/08/23 06:10:12;;;;;;;19.67;12.25;;;15.60;99.90;;;;;;5091787;28;20052;-66
2021/08/23 06:12:40;;;;;;;23.73;13.55;;;15.70;99.90;;;;;;5091793;28;20388;-67
2021/08/23 06:15:07;;;;;;;20.90;13.00;;;15.70;99.90;;;;;;5091630;28;20508;-67
2021/08/23 06:17:34;;;;;;;20.33;13.10;;;15.60;99.90;;;;;;5090866;28;20095;-67
2021/08/23 06:20:01;;;;;;;19.67;12.40;;;15.60;99.90;;;;;;5091232;28;20044;-67
2021/08/23 06:22:28;;;;;;;20.73;13.20;;;15.70;99.90;;;;;;5091481;28;20089;-67
2021/08/23 06:24:57;;;;;;;18.23;12.35;;;15.60;99.90;;;;;;5091349;28;20549;-66
2021/08/23 06:27:24;;;;;;;20.63;12.88;;;15.60;99.90;;;;;;5091486;28;20047;-67
2021/08/23 06:29:51;;;;;;;21.35;12.55;;;15.60;99.90;;;;;;5090987;28;20051;-67
2021/08/23 06:32:18;;;;;;;19.67;12.25;;;15.60;99.90;;;;;;5091748;28;20461;-67
2021/08/23 06:34:45;;;;;;;17.85;12.40;;;15.70;99.90;;;;;;5091685;28;20048;-67
2021/08/23 06:37:11;;;;;;;19.63;11.60;;;15.60;99.90;;;;;;5091165;28;20084;-67
2021/08/23 06:39:38;;;;;;;18.30;12.65;;;15.60;99.90;;;;;;5090905;28;20469;-67
2021/08/23 06:42:07;;;;;;;21.20;13.15;;;15.70;99.90;;;;;;5091542;28;20064;-67
2021/08/23 06:44:34;;;;;;;21.58;13.15;;;15.70;99.90;;;;;;5090775;28;20059;-67
2021/08/23 06:47:01;;;;;;;19.48;12.63;;;15.80;99.90;;;;;;5091048;28;20408;-67
2021/08/23 06:49:28;;;;;;;20.30;13.40;;;15.70;99.90;;;;;;5090713;28;20052;-67
2021/08/23 06:51:55;;;;;;;24.90;13.45;;;15.80;99.90;;;;;;5091146;28;20571;-67
2021/08/23 06:54:22;;;;;;;23.75;14.63;;;15.70;99.90;;;;;;5091202;28;20105;-67
2021/08/23 06:56:49;;;;;;;24.02;14.88;;;15.70;99.90;;;;;;5091100;28;20146;-68
2021/08/23 06:59:18;;;;;;;25.77;15.88;;;15.70;99.90;;;;;;5090163;28;20120;-67
2021/08/23 07:01:44;;;;;;;24.48;14.82;;;15.70;99.90;;;;;;5090879;28;20073;-67
2021/08/23 07:04:11;;;;;;;26.48;16.08;;;15.70;99.90;;;;;;5090732;28;20101;-67
2021/08/23 07:06:38;;;;;;;23.05;15.48;;;15.70;99.90;;;;;;5090632;28;20089;-66
2021/08/23 07:09:05;;;;;;;24.63;15.93;;;15.80;99.90;;;;;;5090320;28;20056;-67
2021/08/23 07:11:32;;;;;;;25.98;15.63;;;15.70;99.90;;;;;;5090450;28;20495;-67
2021/08/23 07:13:59;;;;;;;26.00;15.55;;;15.80;99.90;;;;;;5090809;28;20113;-66
2021/08/23 07:16:28;;;;;;;24.77;16.35;;;15.80;99.90;;;;;;5090641;28;20105;-67
2021/08/23 07:18:55;;;;;;;27.08;15.68;;;15.80;99.90;;;;;;5089992;28;20105;-67
2021/08/23 07:21:22;;;;;;;22.23;15.20;;;15.80;99.90;;;;;;5090581;28;20097;-67
2021/08/23 07:23:49;;;;;;;25.33;14.60;;;15.80;99.90;;;;;;5090805;28;20454;-67
2021/08/23 07:26:16;;;;;;;23.15;15.38;;;15.80;99.90;;;;;;5090365;28;20129;-66
2021/08/23 07:28:43;;;;;;;23.58;16.27;;;15.90;99.90;;;;;;5089734;28;20511;-67
2021/08/23 07:31:10;;;;;;;21.65;14.65;;;15.90;99.90;;;;;;5090380;28;20044;-67
2021/08/23 07:33:38;;;;;;;24.65;15.18;;;16.00;99.90;;;;;;5089380;28;20044;-67
2021/08/23 07:36:05;;;;;;;22.40;14.38;;;16.00;99.90;;;;;;5090035;28;20048;-67
2021/08/23 07:38:32;;;;;;;23.23;14.48;;;16.20;99.90;;;;;;5089208;28;20090;-67
2021/08/23 07:41:01;;;;;;;22.25;13.77;;;16.20;99.90;;;;;;5090023;28;20101;-67
2021/08/23 07:43:28;;;;;;;20.70;14.43;;;16.30;99.90;;;;;;5090044;28;20087;-67
2021/08/23 07:45:54;;;;;;;24.13;13.60;;;16.30;99.90;;;;;;5089928;28;20052;-67
2021/08/23 07:48:29;;;;;;;24.55;14.52;;;16.30;99.90;;;;;;5089936;28;20048;-67
2021/08/23 07:50:57;;;;;;;22.75;13.80;;;16.40;99.90;;;;;;5090321;28;20758;-67
2021/08/23 07:53:24;;;;;;;20.52;13.75;;;16.40;99.90;;;;;;5089572;28;20052;-67
2021/08/23 07:55:51;;;;;;;23.17;13.75;;;16.60;99.90;;;;;;5090093;28;20044;-68
2021/08/23 07:58:18;;;;;;;20.40;13.88;;;16.60;99.90;;;;;;5089385;28;20100;-68
2021/08/23 08:00:45;;;;;;;19.73;12.50;;;16.70;99.90;;;;;;5089842;28;20084;-67
2021/08/23 08:03:12;;;;;;;17.88;12.10;;;16.80;99.90;;;;;;5089317;28;20101;-67
2021/08/23 08:05:39;;;;;;;20.50;13.25;;;17.00;99.90;;;;;;5089666;28;20112;-67
2021/08/23 08:08:09;;;;;;;17.85;11.43;;;17.10;99.90;;;;;;5089112;28;20052;-67
2021/08/23 08:10:37;;;;;;;20.27;12.30;;;17.20;99.90;;;;;;5089646;28;20564;-68
2021/08/23 08:13:04;;;;;;;15.85;11.38;;;17.20;99.90;;;;;;5089506;28;20089;-67
2021/08/23 08:15:31;;;;;;;15.68;10.80;;;17.30;99.90;;;;;;5089731;28;20276;-68
2021/08/23 08:17:58;;;;;;;15.60;10.30;;;17.20;99.90;;;;;;5089346;28;20064;-68
2021/08/23 08:20:25;;;;;;;17.50;10.27;;;17.20;99.90;;;;;;5089661;28;20090;-68
2021/08/23 08:22:52;;;;;;;17.90;10.43;;;17.20;99.90;;;;;;5089716;28;20072;-68
2021/08/23 08:25:21;;;;;;;14.18;10.38;;;17.10;99.90;;;;;;5089532;28;20048;-68
2021/08/23 08:27:49;;;;;;;14.43;10.23;;;17.00;99.90;;;;;;5088910;28;20080;-68
2021/08/23 08:30:17;;;;;;;15.15;10.63;;;17.20;99.90;;;;;;5089305;28;20527;-67
2021/08/23 08:32:44;;;;;;;14.38;10.00;;;17.30;99.90;;;;;;5089423;28;20411;-68
2021/08/23 08:35:12;;;;;;;17.08;8.98;;;17.60;99.90;;;;;;5089807;28;20048;-67
2021/08/23 08:37:39;;;;;;;14.48;9.50;;;17.70;99.90;;;;;;5089110;28;20056;-68
2021/08/23 08:40:08;;;;;;;13.02;9.25;;;17.80;99.90;;;;;;5089506;28;20474;-68
2021/08/23 08:42:36;;;;;;;11.65;8.75;;;17.90;99.90;;;;;;5089135;28;20102;-68
2021/08/23 08:45:04;;;;;;;14.10;8.38;;;18.10;99.90;;;;;;5093058;28;20052;-68
2021/08/23 08:47:32;;;;;;;12.98;8.73;;;17.70;99.90;;;;;;5093207;28;20052;-68
2021/08/23 08:50:00;;;;;;;13.73;9.02;;;17.70;99.90;;;;;;5093559;28;20094;-68
2021/08/23 08:52:28;;;;;;;15.40;8.95;;;17.70;99.90;;;;;;5093326;28;20051;-67
2021/08/23 08:54:54;;;;;;;11.32;7.70;;;17.90;99.90;;;;;;5093276;28;20492;-68
2021/08/23 08:57:22;;;;;;;12.77;9.10;;;18.10;99.90;;;;;;5093390;28;20048;-68
2021/08/23 08:59:50;;;;;;;14.88;10.63;;;18.20;99.90;;;;;;5092820;28;20058;-68
2021/08/23 09:02:17;;;;;;;19.00;11.73;;;18.30;99.90;;;;;;5093246;28;20051;-68
2021/08/23 09:04:44;;;;;;;16.50;12.52;;;18.10;99.90;;;;;;5093073;28;20113;-68
2021/08/23 09:07:13;;;;;;;17.38;11.57;;;18.20;99.90;;;;;;5092887;28;20489;-68
2021/08/23 09:09:40;;;;;;;16.38;10.10;;;18.40;99.90;;;;;;5092758;28;20090;-68
2021/08/23 09:12:09;;;;;;;14.80;10.70;;;18.60;99.90;;;;;;5092602;28;20052;-68
2021/08/23 09:14:40;;;;;;;17.13;10.63;;;18.80;99.90;;;;;;5092972;28;20052;-68
2021/08/23 09:17:11;;;;;;;13.07;9.00;;;18.90;99.90;;;;;;5092947;28;20135;-68
2021/08/23 09:19:40;;;;;;;12.30;8.30;;;18.80;99.90;;;;;;5092132;28;20392;-68
2021/08/23 09:22:10;;;;;;;12.40;8.52;;;19.20;99.90;;;;;;5092780;28;20488;-68
2021/08/23 09:24:39;;;;;;;12.13;7.85;;;19.00;99.90;;;;;;5092392;28;20085;-68
2021/08/23 09:27:09;;;;;;;11.95;8.45;;;19.00;99.90;;;;;;5092390;28;20051;-68
2021/08/23 09:30:03;;;;;;;11.68;7.90;;;18.90;99.90;;;;;;5092458;28;20048;-68
2021/08/23 09:32:33;;;;;;;17.60;10.35;;;18.80;99.90;;;;;;5056670;28;20478;-68
2021/08/23 09:35:01;;;;;;;15.57;10.15;;;18.70;99.90;;;;;;5092112;28;20098;-68
2021/08/23 09:37:30;;;;;;;10.98;8.45;;;18.50;99.90;;;;;;5092276;28;20113;-67
2021/08/23 09:40:07;;;;;;;11.60;8.35;;;18.30;99.90;;;;;;5092111;28;20102;-68
2021/08/23 09:42:35;;;;;;;11.57;7.75;;;18.30;99.90;;;;;;5092451;28;20090;-68
2021/08/23 09:45:02;;;;;;;13.95;8.13;;;18.20;99.90;;;;;;5092893;28;20533;-68
2021/08/23 09:47:31;;;;;;;10.60;7.05;;;18.20;99.90;;;;;;5091676;28;20070;-68
2021/08/23 09:49:58;;;;;;;14.25;7.43;;;18.10;99.90;;;;;;5092100;28;20508;-68
2021/08/23 09:52:34;;;;;;;11.10;7.40;;;18.30;99.90;;;;;;5092176;28;20109;-68
2021/08/23 09:55:02;;;;;;;10.85;7.40;;;18.50;99.90;;;;;;5091327;28;20523;-68
2021/08/23 09:57:30;;;;;;;12.23;7.38;;;18.60;99.90;;;;;;5092038;28;20058;-68
2021/08/23 09:59:57;;;;;;;10.73;6.88;;;18.90;99.90;;;;;;5091491;28;20499;-68
2021/08/23 10:02:27;;;;;;;9.98;6.72;;;19.20;99.90;;;;;;5092209;28;20140;-68
2021/08/23 10:04:58;;;;;;;9.55;6.82;;;19.30;99.90;;;;;;5091986;28;20052;-68
2021/08/23 10:07:27;;;;;;;17.58;7.20;;;19.40;99.90;;;;;;5091713;28;20056;-68
2021/08/23 10:09:54;;;;;;;11.02;6.55;;;19.60;99.90;;;;;;5091940;28;20143;-68
2021/08/23 10:12:23;;;;;;;11.98;7.50;;;19.90;99.90;;;;;;5091440;28;20054;-68
2021/08/23 10:14:50;;;;;;;12.73;7.75;;;19.70;99.90;;;;;;5091732;28;20083;-68
2021/08/23 10:17:18;;;;;;;11.50;8.43;;;19.70;99.90;;;;;;5091585;28;20109;-68
2021/08/23 10:19:45;;;;;;;11.20;7.75;;;19.50;99.90;;;;;;5090953;28;20110;-68
2021/08/23 10:22:15;;;;;;;12.38;6.60;;;19.60;99.90;;;;;;5091542;28;20105;-68
2021/08/23 10:24:43;;;;;;;10.25;6.35;;;19.50;99.90;;;;;;5091219;28;20056;-68
2021/08/23 10:27:21;;;;;;;10.40;6.90;;;19.40;99.90;;;;;;5091233;28;20511;-68
2021/08/23 10:29:49;;;;;;;10.05;6.32;;;19.30;99.90;;;;;;5090828;28;20048;-68
2021/08/23 10:32:17;;;;;;;9.93;6.47;;;19.40;99.90;;;;;;5091436;28;20561;-68
2021/08/23 10:34:44;;;;;;;11.25;6.72;;;19.50;99.90;;;;;;5091151;28;20048;-68
2021/08/23 10:37:21;;;;;;;10.85;6.35;;;19.60;99.90;;;;;;5090910;28;20080;-68
2021/08/23 10:39:59;;;;;;;12.65;7.00;;;19.60;99.90;;;;;;5090368;28;20454;-68
2021/08/23 10:45:06;;;;;;;10.00;6.63;;;19.50;99.90;;;;;;5069498;28;20129;-69
2021/08/23 10:47:33;;;;;;;10.60;6.50;;;19.50;99.90;;;;;;5066005;28;20049;-69
2021/08/23 10:50:00;;;;;;;9.48;7.10;;;19.50;99.90;;;;;;5050785;28;20044;-69
2021/08/23 10:52:35;;;;;;;11.82;6.70;;;19.40;99.90;;;;;;5050759;28;20045;-69
2021/08/23 10:55:02;;;;;;;9.68;6.90;;;19.40;99.90;;;;;;5050320;28;20059;-69
2021/08/23 10:57:29;;;;;;;9.77;6.95;;;19.30;99.90;;;;;;5049976;28;20580;-69
2021/08/23 11:00:09;;;;;;;11.55;7.93;;;19.30;99.90;;;;;;5050344;28;20048;-69
2021/08/23 11:02:38;;;;;;;10.60;7.45;;;19.10;99.90;;;;;;5050814;28;20057;-70
2021/08/23 11:05:09;;;;;;;13.23;7.82;;;19.00;99.90;;;;;;5051077;28;20053;-69
2021/08/23 11:07:40;;;;;;;10.13;6.85;;;18.80;99.90;;;;;;5050185;28;20053;-70
2021/08/23 11:10:10;;;;;;;11.38;7.57;;;18.90;99.90;;;;;;5050396;28;20515;-69
2021/08/23 11:12:44;;;;;;;9.50;7.30;;;18.70;99.90;;;;;;5050788;28;20144;-70
2021/08/23 11:15:14;;;;;;;11.50;7.75;;;18.60;99.90;;;;;;5052389;28;20358;-70
2021/08/23 11:17:45;;;;;;;13.80;8.07;;;18.60;99.90;;;;;;5051874;28;20106;-70
2021/08/23 11:20:17;;;;;;;11.68;7.90;;;18.50;99.90;;;;;;5050829;28;20053;-70
2021/08/23 11:22:52;;;;;;;15.88;9.13;;;18.50;99.90;;;;;;5050502;28;20057;-69
2021/08/23 11:25:28;;;;;;;16.10;9.90;;;18.40;99.90;;;;;;5050097;28;20085;-70
2021/08/23 11:27:55;;;;;;;15.30;10.65;;;18.30;99.90;;;;;;5049607;28;20542;-70
2021/08/23 11:30:28;;;;;;;15.38;10.88;;;18.20;99.90;;;;;;5050133;28;20052;-70
2021/08/23 11:32:55;;;;;;;17.73;10.95;;;18.20;99.90;;;;;;5049775;28;20582;-70
2021/08/23 11:35:22;;;;;;;16.63;12.00;;;18.20;99.90;;;;;;5049941;28;20505;-70
2021/08/23 11:37:57;;;;;;;17.05;11.77;;;18.20;99.90;;;;;;5049136;28;20052;-70
2021/08/23 11:40:25;;;;;;;20.00;12.70;;;18.10;99.90;;;;;;5049960;28;20114;-70
2021/08/23 11:42:56;;;;;;;20.13;12.73;;;18.10;99.90;;;;;;5049789;28;20053;-70
2021/08/23 11:45:25;;;;;;;20.13;13.80;;;18.10;99.90;;;;;;5049726;28;20487;-70
2021/08/23 11:47:53;;;;;;;22.85;13.43;;;18.10;99.90;;;;;;5049131;28;20570;-69
2021/08/23 11:50:21;;;;;;;22.02;14.13;;;18.10;99.90;;;;;;5049568;28;20049;-69
2021/08/23 11:52:48;;;;;;;18.90;12.85;;;17.90;99.90;;;;;;5049381;28;20111;-69
2021/08/23 11:55:26;;;;;;;17.27;12.52;;;17.70;99.90;;;;;;5049584;28;20487;-69
2021/08/23 11:57:58;;;;;;;19.40;12.85;;;17.60;99.90;;;;;;5049248;28;20743;-69
2021/08/23 12:00:25;;;;;;;17.75;12.15;;;17.60;99.90;;;;;;5049703;28;20055;-69
2021/08/23 12:03:02;;;;;;;16.92;12.25;;;17.60;99.90;;;;;;5049463;28;20103;-70
2021/08/23 12:05:35;;;;;;;16.75;11.30;;;17.60;99.90;;;;;;5049820;28;20052;-69
2021/08/23 12:08:02;;;;;;;17.20;10.52;;;17.60;99.90;;;;;;5049865;28;20479;-69
2021/08/23 12:10:32;;;;;;;15.18;10.60;;;17.50;99.90;;;;;;5049373;28;20493;-70
2021/08/23 12:13:14;;;;;;;14.93;10.13;;;17.50;99.90;;;;;;5049963;28;20559;-69
2021/08/23 12:15:53;;;;;;;15.55;10.10;;;17.50;99.90;;;;;;5049503;28;20179;-69
2021/08/23 12:18:28;;;;;;;15.18;10.82;;;17.50;99.90;;;;;;5048322;28;20569;-69
2021/08/23 12:21:12;;;;;;;14.70;9.67;;;17.50;99.90;;;;;;5049644;28;20055;-69
2021/08/23 12:24:01;;;;;;;13.25;9.75;;;17.40;99.90;;;;;;5049221;28;20051;-69
2021/08/23 12:26:33;;;;;;;13.35;9.27;;;17.40;99.90;;;;;;5049421;28;20053;-69
2021/08/23 12:29:02;;;;;;;15.07;9.43;;;17.40;99.90;;;;;;5048246;28;20053;-69
2021/08/23 12:31:29;;;;;;;12.88;9.02;;;17.50;99.90;;;;;;5049450;28;20398;-69
2021/08/23 12:33:56;;;;;;;14.00;8.60;;;17.50;99.90;;;;;;5049099;28;20493;-69
2021/08/23 12:36:23;;;;;;;12.15;7.57;;;17.60;99.90;;;;;;5049263;28;20085;-69
2021/08/23 12:38:50;;;;;;;11.23;8.18;;;17.80;99.90;;;;;;5048754;28;20111;-69